Clifford, Michigan
Current Conditions -  °F | °C
As of 8:15 AM on Friday 24 Oct 2014 (Local Time) from KCFS Reporting Station
Broken Clouds Broken Clouds  
Wind Chill: 32°   Ceiling: 6500
Heat Index: 32°   Visibility: 10mi
Dew Point: 31°   Wind: 0mph
Humidity: 98%   Direction: NA
Pressure: 30.06"   Gusts: NA
Location:  43.31°N, 83.18°W
Report Text: KCFS 241215Z AUTO 00000KT 10SM BKN065 00/00 A3006 RMK AO2 T00001003
Loading
Personal Weather Stations






























Interactive Weather Map New forecast layout! Learn more

10-Day Weather Forecast

Advertisements
Track Severe Weather on mobile